createdAt,value
2019-01-10T00:03:20.113Z,4.36
2019-01-10T00:08:27.976Z,4.24
2019-01-10T00:13:35.666Z,4.29
2019-01-10T00:18:43.429Z,4.39
2019-01-10T00:23:51.173Z,4.42
2019-01-10T00:28:59.061Z,4.35
2019-01-10T00:34:06.693Z,4.34
2019-01-10T00:39:14.477Z,4.32
2019-01-10T00:44:22.198Z,4.17
2019-01-10T00:49:30.098Z,4.87
2019-01-10T00:54:37.856Z,5.03
2019-01-10T00:59:45.726Z,5.04
2019-01-10T01:04:53.427Z,5.13
2019-01-10T01:10:01.253Z,4.41
2019-01-10T01:15:09.079Z,4.70
2019-01-10T01:20:16.899Z,4.88
2019-01-10T01:25:24.600Z,4.36
2019-01-10T01:30:32.416Z,5.14
2019-01-10T01:35:40.118Z,4.99
2019-01-10T01:40:47.901Z,5.14
2019-01-10T01:45:55.637Z,4.31
2019-01-10T01:51:03.544Z,4.94
2019-01-10T01:56:11.235Z,4.10
2019-01-10T02:01:18.954Z,4.26
2019-01-10T02:06:26.637Z,4.53
2019-01-10T02:11:34.526Z,4.53
2019-01-10T02:16:42.215Z,4.84
2019-01-10T02:21:50.032Z,4.60
2019-01-10T02:26:57.688Z,4.21
2019-01-10T02:32:05.458Z,4.52
2019-01-10T02:37:13.116Z,5.11
2019-01-10T02:42:20.881Z,4.59
2019-01-10T02:47:28.590Z,4.55
2019-01-10T02:52:36.359Z,4.40
2019-01-10T02:57:44.054Z,4.38
2019-01-10T03:02:51.851Z,4.87
2019-01-10T03:07:59.539Z,4.53
2019-01-10T03:13:07.260Z,4.44
2019-01-10T03:18:14.937Z,5.11
2019-01-10T03:23:22.693Z,4.12
2019-01-10T03:28:30.392Z,4.78
2019-01-10T03:33:38.179Z,4.40
2019-01-10T03:38:45.992Z,4.00
2019-01-10T03:43:53.766Z,4.47
2019-01-10T03:49:01.471Z,3.89
2019-01-10T03:54:09.297Z,4.65
2019-01-10T03:59:17.087Z,3.90
2019-01-10T04:04:24.911Z,4.51
2019-01-10T04:09:32.623Z,4.20
2019-01-10T04:14:40.390Z,4.49
2019-01-10T04:19:48.110Z,3.92
2019-01-10T04:24:55.970Z,3.94
2019-01-10T04:30:03.705Z,4.26
2019-01-10T04:35:11.445Z,4.13
2019-01-10T04:40:19.186Z,4.15
2019-01-10T04:45:26.927Z,4.48
2019-01-10T04:50:34.616Z,4.33
2019-01-10T04:55:42.455Z,4.63
2019-01-10T05:00:50.092Z,4.62
2019-01-10T05:05:57.827Z,4.59
2019-01-10T05:11:05.515Z,4.58
2019-01-10T05:16:13.288Z,4.47
2019-01-10T05:21:21.010Z,4.53
2019-01-10T05:26:28.724Z,4.69
2019-01-10T05:31:36.396Z,4.63
2019-01-10T05:36:44.183Z,4.59
2019-01-10T05:41:51.923Z,3.96
2019-01-10T05:46:59.763Z,4.02
2019-01-10T05:52:07.435Z,4.03
2019-01-10T05:57:15.177Z,4.01
2019-01-10T06:02:22.861Z,4.31
2019-01-10T06:07:30.727Z,3.94
2019-01-10T06:12:38.404Z,4.08
2019-01-10T06:17:46.168Z,4.07
2019-01-10T06:22:53.905Z,4.57
2019-01-10T06:28:01.681Z,4.43
2019-01-10T06:33:09.387Z,4.74
2019-01-10T06:38:17.238Z,4.42
2019-01-10T06:43:25.009Z,4.07
2019-01-10T06:48:32.796Z,4.90
2019-01-10T06:53:40.525Z,4.39
2019-01-10T06:58:48.287Z,4.13
2019-01-10T07:03:55.975Z,4.49
2019-01-10T07:09:03.773Z,5.79
2019-01-10T07:14:11.509Z,5.53
2019-01-10T07:19:19.346Z,5.26
2019-01-10T07:24:27.078Z,4.81
2019-01-10T07:29:34.966Z,4.72
2019-01-10T07:34:42.615Z,4.95
2019-01-10T07:39:50.437Z,4.54
2019-01-10T07:45:02.865Z,5.07
2019-01-10T07:50:05.412Z,4.31
2019-01-10T07:55:13.176Z,4.83
2019-01-10T08:00:21.022Z,4.58
2019-01-10T08:05:28.763Z,4.60
2019-01-10T08:10:36.606Z,4.74
2019-01-10T08:15:44.408Z,4.87
2019-01-10T08:20:52.455Z,4.69
2019-01-10T08:26:00.183Z,4.33
2019-01-10T08:31:07.900Z,5.08
2019-01-10T08:36:15.646Z,4.92
2019-01-10T08:41:23.443Z,4.65
2019-01-10T08:46:31.135Z,4.61
2019-01-10T08:51:39.034Z,4.66
2019-01-10T08:56:46.798Z,4.86
2019-01-10T09:01:54.533Z,4.61
2019-01-10T09:07:02.272Z,4.53
2019-01-10T09:12:10.035Z,4.43
2019-01-10T09:17:17.696Z,4.67
2019-01-10T09:22:25.549Z,4.43
2019-01-10T09:27:33.286Z,4.42
2019-01-10T09:32:41.022Z,4.44
2019-01-10T09:37:48.692Z,4.35
2019-01-10T09:42:56.491Z,6.17
2019-01-10T09:48:04.236Z,6.46
2019-01-10T09:53:12.071Z,5.74
2019-01-10T09:58:19.806Z,6.02
2019-01-10T10:03:27.624Z,5.83
2019-01-10T10:08:35.310Z,5.62
2019-01-10T10:13:43.058Z,5.36
2019-01-10T10:18:50.810Z,6.64
2019-01-10T10:23:58.577Z,5.07
2019-01-10T10:29:06.282Z,5.51
2019-01-10T10:34:14.042Z,4.75
2019-01-10T10:39:21.710Z,4.74
2019-01-10T10:44:29.541Z,4.60
2019-01-10T10:49:37.290Z,7.10
2019-01-10T10:54:45.159Z,5.68
2019-01-10T10:59:52.925Z,5.78
2019-01-10T11:05:00.703Z,5.74
2019-01-10T11:10:08.494Z,5.58
2019-01-10T11:15:16.375Z,5.41
2019-01-10T11:20:24.120Z,5.71
2019-01-10T11:25:31.879Z,6.43
2019-01-10T11:30:39.598Z,6.80
2019-01-10T11:35:47.361Z,7.11
2019-01-10T11:40:55.195Z,7.06
2019-01-10T11:46:03.002Z,7.68
2019-01-10T11:51:10.659Z,6.43
2019-01-10T11:56:18.454Z,6.64
2019-01-10T12:01:26.169Z,6.30
2019-01-10T12:06:34.003Z,6.37
2019-01-10T12:11:41.671Z,6.45
2019-01-10T12:16:49.411Z,7.92
2019-01-10T12:21:57.070Z,6.17
2019-01-10T12:27:04.811Z,5.39
2019-01-10T12:32:12.466Z,6.37
2019-01-10T12:37:20.295Z,6.90
2019-01-10T12:42:28.064Z,5.90
2019-01-10T12:47:35.879Z,5.89
2019-01-10T12:52:43.556Z,6.59
2019-01-10T12:57:51.284Z,6.68
2019-01-10T13:02:59.004Z,7.80
2019-01-10T13:08:06.675Z,6.96
2019-01-10T13:13:14.332Z,6.19
2019-01-10T13:18:22.110Z,6.58
2019-01-10T13:23:29.759Z,5.85
2019-01-10T13:28:37.503Z,6.36
2019-01-10T13:33:45.189Z,6.29
2019-01-10T13:38:52.924Z,6.59
2019-01-10T13:44:00.621Z,7.56
2019-01-10T13:49:08.457Z,7.38
2019-01-10T13:54:16.111Z,7.35
2019-01-10T13:59:23.906Z,6.98
2019-01-10T14:04:31.594Z,7.76
2019-01-10T14:09:39.451Z,7.42
2019-01-10T14:14:47.161Z,8.21
2019-01-10T14:19:55.004Z,7.56
2019-01-10T14:25:02.701Z,7.71
2019-01-10T14:30:11.767Z,6.83
2019-01-10T14:35:19.490Z,7.06
2019-01-10T14:40:27.319Z,7.24
2019-01-10T14:45:35.846Z,7.08
2019-01-10T14:50:43.065Z,6.31
2019-01-10T14:55:50.770Z,7.83
2019-01-10T15:00:58.619Z,8.31
2019-01-10T15:06:06.278Z,6.85
2019-01-10T15:11:14.021Z,6.17
2019-01-10T15:16:21.692Z,6.42
2019-01-10T15:21:29.487Z,6.24
2019-01-10T15:26:37.293Z,6.29
2019-01-10T15:31:45.090Z,5.56
2019-01-10T15:36:52.718Z,5.65
2019-01-10T15:42:00.831Z,4.36
2019-01-10T15:47:08.206Z,4.23
2019-01-10T15:52:15.931Z,4.25
2019-01-10T15:57:23.622Z,4.61
2019-01-10T16:02:31.402Z,4.16
2019-01-10T16:07:39.099Z,4.67
2019-01-10T16:12:46.912Z,4.07
2019-01-10T16:17:54.611Z,4.88
2019-01-10T16:23:02.476Z,4.19
2019-01-10T16:28:10.201Z,4.94
2019-01-10T16:33:17.935Z,4.40
2019-01-10T16:38:25.633Z,4.61
2019-01-10T16:43:33.599Z,4.32
2019-01-10T16:48:41.321Z,4.32
2019-01-10T16:53:49.114Z,4.69
2019-01-10T16:58:56.839Z,4.30
2019-01-10T17:04:04.608Z,4.30
2019-01-10T17:09:17.465Z,4.57
2019-01-10T17:14:19.562Z,4.30
2019-01-10T17:19:27.260Z,4.46
2019-01-10T17:24:34.987Z,4.38
2019-01-10T17:29:42.737Z,4.60
2019-01-10T17:34:51.249Z,4.54
2019-01-10T17:39:57.802Z,4.71
2019-01-10T17:45:05.621Z,4.36
2019-01-10T17:50:13.334Z,5.19
2019-01-10T17:55:21.276Z,5.06
2019-01-10T18:00:29.059Z,5.53
2019-01-10T18:05:36.815Z,5.57
2019-01-10T18:10:44.492Z,6.06
2019-01-10T18:15:52.218Z,4.97
2019-01-10T18:20:59.982Z,4.69
2019-01-10T18:26:07.830Z,5.40
2019-01-10T18:31:15.543Z,4.99
2019-01-10T18:36:23.366Z,5.52
2019-01-10T18:41:31.081Z,5.04
2019-01-10T18:46:38.822Z,5.35
2019-01-10T18:51:46.576Z,5.18
2019-01-10T18:56:54.366Z,5.40
2019-01-10T19:02:02.072Z,6.28
2019-01-10T19:07:09.900Z,5.45
2019-01-10T19:12:17.591Z,5.24
2019-01-10T19:17:26.192Z,5.89
2019-01-10T19:22:32.628Z,6.21
2019-01-10T19:27:40.422Z,5.85
2019-01-10T19:32:48.113Z,5.80
2019-01-10T19:37:56.124Z,5.93
2019-01-10T19:43:03.895Z,6.61
2019-01-10T19:48:11.701Z,6.88
2019-01-10T19:53:19.316Z,6.32
2019-01-10T19:58:27.124Z,5.95
2019-01-10T20:03:34.757Z,6.73
2019-01-10T20:08:42.524Z,7.45
2019-01-10T20:13:50.233Z,6.37
2019-01-10T20:18:58.050Z,7.44
2019-01-10T20:24:05.778Z,7.13
2019-01-10T20:29:13.508Z,6.38
2019-01-10T20:34:21.207Z,6.40
2019-01-10T20:39:28.987Z,6.04
2019-01-10T20:44:36.682Z,6.44
2019-01-10T20:49:44.427Z,6.49
2019-01-10T20:54:52.128Z,7.41
2019-01-10T20:59:59.922Z,6.41
2019-01-10T21:05:07.586Z,6.25
2019-01-10T21:10:15.337Z,6.20
2019-01-10T21:15:23.050Z,5.78
2019-01-10T21:20:30.848Z,6.11
2019-01-10T21:25:38.567Z,6.70
2019-01-10T21:30:46.369Z,6.59
2019-01-10T21:35:54.026Z,6.46
2019-01-10T21:41:01.753Z,6.24
2019-01-10T21:46:09.377Z,8.09
2019-01-10T21:51:17.136Z,7.21
2019-01-10T21:56:24.819Z,7.31
2019-01-10T22:01:32.546Z,7.44
2019-01-10T22:06:40.274Z,7.21
2019-01-10T22:11:48.090Z,7.69
2019-01-10T22:16:55.831Z,7.53
2019-01-10T22:22:03.646Z,8.26
2019-01-10T22:27:11.295Z,7.01
2019-01-10T22:32:19.011Z,7.29
2019-01-10T22:37:29.020Z,7.60
2019-01-10T22:42:33.975Z,8.08
2019-01-10T22:47:41.691Z,11.24
2019-01-10T22:52:49.404Z,9.76
2019-01-10T22:57:57.166Z,9.90
2019-01-10T23:03:04.879Z,8.46
2019-01-10T23:08:12.608Z,10.09
2019-01-10T23:13:20.367Z,8.00
2019-01-10T23:18:28.110Z,7.30
2019-01-10T23:23:35.851Z,8.04
2019-01-10T23:28:43.516Z,8.65
2019-01-10T23:33:51.283Z,9.99
2019-01-10T23:38:58.958Z,12.33
2019-01-10T23:44:06.692Z,13.00
2019-01-10T23:49:14.407Z,14.00
2019-01-10T23:54:22.126Z,15.01
2019-01-10T23:59:29.839Z,12.49
